RESULTADOS DE LA FECHA: Domingo 8 de Diciembre, 2019 C2 | Ver Clase 2 | Ver Clase 3
FINAL C2
Puesto Nro Piloto Marca Vtas Tiempo Dif.
1 1 Nicolas POSCO FIESTA KINETIC 18 33:17.640
2 18 Marcos FERNANDEZ NISSAN MARCH 18 33:18.040 0.400
3 11 Gaston IANSA FIESTA KINETIC 18 33:19.116 1.476
4 25 Sebastian PEREZ CHEVROLET ONIX 18 33:21.945 4.305
5 14 Ever FRANETOVICH FIAT PALIO 18 33:23.034 5.394
6 69 Agustin HERRERA RENAULT CLIO 18 33:27.358 9.718
7 31 Facundo LEANEZ TOYOTA ETIOS 18 33:28.045 10.405
8 5 Gaston GRASSO TOYOTA ETIOS 18 33:29.907 12.267
9 65 Fernando GOMEZ FREDES NISSAN MARCH 18 33:30.422 12.782
10 100 Ian REUTEMANN FIESTA KINETIC 18 33:30.782 13.142
11 120 Geronimo NUNEZ NISSAN MARCH 18 33:31.309 13.669
12 73 Lucas BAGNERA RENAULT CLIO 18 33:31.785 14.145
13 21 Gabriel SCORDIA FIESTA KINETIC 18 33:32.222 14.582
14 150 Damian MARKEL TOYOTA ETIOS 18 33:32.350 14.710
15 79 Andres CALDERON VW TREND 18 33:33.013 15.373
16 99 Luciano GONZALEZ RENAULT CLIO 18 33:33.148 15.508
17 47 Ignacio PROCACITTO VW TREND 18 33:33.606 15.966
18 7 Maximiliano BESTANI NISSAN MARCH 18 33:34.558 16.918
19 78 Alejandro WEIMANN TOYOTA ETIOS 18 33:35.837 18.197
20 91 Mauro SALVI TOYOTA ETIOS 18 33:42.278 24.638
21 159 Agustin BONOMO DS3 18 33:43.484 25.844
22 141 Juan Pablo ROTONDO FIESTA KINETIC 18 33:46.571 28.931
23 35 Diego LEANEZ TOYOTA ETIOS 18 34:05.180 47.540
24 13 Joel BORGOBELLO VW TREND 17 31:37.516 1 Vuelta
25 72 Lucas TEDESCHI TOYOTA ETIOS 16 30:00.444 2 Vueltas
26 199 Emiliano GIACOPONI CHEVROLET CORSA 13 25:28.683 5 Vueltas
27 112 Damian ROMERO TOYOTA ETIOS 13 26:00.129 5 Vueltas
6 Miguel CIAURRO VW TREND 11 21:43.248 7 Vueltas
24 Juan I. CANELA FIESTA KINETIC 10 20:05.805 8 Vueltas
54 Facundo ROTONDO FIESTA KINETIC 9 17:36.302 9 Vueltas
36 Alejo BORGIANI VW TREND 7 13:28.609 11 Vueltas
75 Jose Luis ARRATE RENAULT CLIO 6 11:47.299 12 Vueltas
63 Renzo TESTA FIAT PALIO 4 6:44.597 14 Vueltas
66 Martin ALESSI RENAULT CLIO 4 6:59.625 14 Vueltas
52 Gustavo ACUNA VW TREND 3 5:17.836 15 Vueltas
61 Sergio SPEDALIERI RENAULT CLIO 2 3:35.995 16 Vueltas

No Largo Auto Nro. 32.

Descargas
Título Archivo Descarga
204-308-final-clase-2.xls
SERIES
PRIMERA SERIE C2
Puesto Nro Piloto Marca Vtas Tiempo Dif.
1 1 Nicolas POSCO FIESTA KINETIC 6 9:49.842
2 72 Lucas TEDESCHI TOYOTA ETIOS 6 9:50.960 1.118
3 14 Ever FRANETOVICH FIAT PALIO 6 9:54.213 4.371
4 18 Marcos FERNANDEZ NISSAN MARCH 6 9:54.490 4.648
5 120 Geronimo NUNEZ NISSAN MARCH 6 10:00.122 10.280
6 65 Fernando GOMEZ FREDES NISSAN MARCH 6 10:00.920 11.078
7 31 Facundo LEANEZ TOYOTA ETIOS 6 10:02.004 12.162
8 63 Renzo TESTA FIAT PALIO 6 10:02.670 12.828
9 75 Jose Luis ARRATE RENAULT CLIO 6 10:03.363 13.521
10 47 Ignacio PROCACITTO VW TREND 6 10:04.086 14.244
11 21 Gabriel SCORDIA FIESTA KINETIC 6 10:04.875 15.033
12 54 Facundo ROTONDO FIESTA KINETIC 6 10:05.078 15.236
13 79 Andres CALDERON VW TREND 6 10:05.971 16.129
14 78 Alejandro WEIMANN TOYOTA ETIOS 6 10:08.660 18.818
15 61 Sergio SPEDALIERI RENAULT CLIO 6 10:26.931 37.089
16 52 Gustavo ACUNA VW TREND 6 10:33.782 43.940
7 Maximiliano BESTANI NISSAN MARCH 1 1:42.733 5 Vueltas
91 Mauro SALVI TOYOTA ETIOS 1 1:53.955 5 Vueltas

Auto Nro. 32 excluido parcialmente por maniobra peligrosa a los Autos Nro. 7 y 91.

Descargas
Título Archivo Descarga
204-693-1-serie-clase-2.xls
SEGUNDA SERIE C2
Puesto Nro Piloto Marca Vtas Tiempo Dif.
1 13 Joel BORGOBELLO VW TREND 6 9:51.735
2 11 Gaston IANSA FIESTA KINETIC 6 9:54.914 3.179
3 25 Sebastian PEREZ CHEVROLET ONIX 6 9:56.591 4.856
4 5 Gaston GRASSO TOYOTA ETIOS 6 9:56.991 5.256
5 6 Miguel CIAURRO VW TREND 6 9:58.103 6.368
6 73 Lucas BAGNERA RENAULT CLIO 6 9:58.564 6.829
7 150 Damian MARKEL TOYOTA ETIOS 6 9:58.744 7.009
8 100 Ian REUTEMANN FIESTA KINETIC 6 9:58.934 7.199
9 69 Agustin HERRERA RENAULT CLIO 6 9:59.577 7.842
10 35 Diego LEANEZ TOYOTA ETIOS 6 10:02.204 10.469
11 141 Juan Pablo ROTONDO FIESTA KINETIC 6 10:02.682 10.947
12 24 Juan I. CANELA FIESTA KINETIC 6 10:02.914 11.179
13 112 Damian ROMERO TOYOTA ETIOS 6 10:03.771 12.036
14 66 Martin ALESSI RENAULT CLIO 6 10:04.948 13.213
15 99 Luciano GONZALEZ RENAULT CLIO 6 10:09.023 17.288
16 159 Agustin BONOMO DS3 6 10:09.372 17.637
17 199 Emiliano GIACOPONI CHEVROLET CORSA 5 8:23.314 1 Vuelta
18 36 Alejo BORGIANI VW TREND 4 6:34.625 2 Vueltas

Auto Nro. 66 Apercibido por maniobra peligrosa al Auto Nro. 69

Descargas
Título Archivo Descarga
204-489-2-serie-clase-2.xls
TERCERA SERIE C2
Puesto Nro Piloto Marca Vtas Tiempo Dif.
Descargas
CLASIFICACIONES
1° CLASIFICACIÓN C2
Puesto Nro Piloto Marca Vtas Tiempo Dif.
1 13 Joel BORGOBELLO VW TREND 2 1:37.242
2 6 Miguel CIAURRO VW TREND 3 1:37.377 0.135
3 1 Nicolas POSCO FIESTA KINETIC 4 1:37.411 0.169
4 36 Alejo BORGIANI VW TREND 3 1:37.440 0.198
5 18 Marcos FERNANDEZ NISSAN MARCH 3 1:37.444 0.202
6 14 Ever FRANETOVICH FIAT PALIO 3 1:37.492 0.250
7 11 Gaston IANSA FIESTA KINETIC 4 1:37.569 0.327
8 65 Fernando GOMEZ FREDES NISSAN MARCH 3 1:37.582 0.340
9 5 Gaston GRASSO TOYOTA ETIOS 3 1:37.739 0.497
10 25 Sebastian PEREZ CHEVROLET ONIX 3 1:37.752 0.510
11 120 Geronimo NUNEZ NISSAN MARCH 3 1:37.754 0.512
12 150 Damian MARKEL TOYOTA ETIOS 4 1:37.784 0.542
13 7 Maximiliano BESTANI NISSAN MARCH 3 1:37.857 0.615
14 69 Agustin HERRERA RENAULT CLIO 4 1:37.875 0.633
15 63 Renzo TESTA FIAT PALIO 4 1:37.876 0.634
16 66 Martin ALESSI RENAULT CLIO 5 1:37.885 0.643
17 72 Lucas TEDESCHI TOYOTA ETIOS 4 1:37.913 0.671
18 73 Lucas BAGNERA RENAULT CLIO 5 1:37.977 0.735
19 54 Facundo ROTONDO FIESTA KINETIC 4 1:38.013 0.771
20 31 Facundo LEANEZ TOYOTA ETIOS 4 1:38.144 0.902
21 78 Alejandro WEIMANN TOYOTA ETIOS 5 1:38.148 0.906
22 91 Mauro SALVI TOYOTA ETIOS 3 1:38.152 0.910
23 24 Juan I. CANELA FIESTA KINETIC 4 1:38.188 0.946
24 21 Gabriel SCORDIA FIESTA KINETIC 5 1:38.198 0.956
25 47 Ignacio PROCACITTO VW TREND 2 1:38.232 0.990
26 112 Damian ROMERO TOYOTA ETIOS 4 1:38.365 1.123
27 32 Sergio FERNANDEZ NISSAN MARCH 3 1:38.381 1.139
28 100 Ian REUTEMANN FIESTA KINETIC 3 1:38.591 1.349
29 75 Jose Luis ARRATE RENAULT CLIO 4 1:38.653 1.411
30 141 Juan Pablo ROTONDO FIESTA KINETIC 5 1:38.719 1.477
31 99 Luciano GONZALEZ RENAULT CLIO 4 1:38.831 1.589
32 35 Diego LEANEZ TOYOTA ETIOS 5 1:38.896 1.654
33 79 Andres CALDERON VW TREND 4 1:39.143 1.901
34 199 Emiliano GIACOPONI CHEVROLET CORSA 4 1:40.099 2.857
35 61 Sergio SPEDALIERI RENAULT CLIO 4 1:45.642 8.400

Sin Tiempo Auto Nro. 52 y 159

Descargas
Título Archivo Descarga
204-718-1-clasifica-clase-2.xls
2° CLASIFICACIÓN C2
Puesto Nro Piloto Marca Vtas Tiempo Dif.
1 1 Nicolas POSCO FIESTA KINETIC 2 1:37.208
2 72 Lucas TEDESCHI TOYOTA ETIOS 4 1:37.286 0.078
3 14 Ever FRANETOVICH FIAT PALIO 3 1:37.414 0.206
4 11 Gaston IANSA FIESTA KINETIC 2 1:37.517 0.309
5 13 Joel BORGOBELLO VW TREND 2 1:37.715 0.507
6 32 Sergio FERNANDEZ NISSAN MARCH 2 1:37.746 0.538
7 91 Mauro SALVI TOYOTA ETIOS 4 1:37.801 0.593
8 100 Ian REUTEMANN FIESTA KINETIC 4 1:37.808 0.600
9 6 Miguel CIAURRO VW TREND 2 1:37.849 0.641
10 120 Geronimo NUNEZ NISSAN MARCH 3 1:37.856 0.648
11 54 Facundo ROTONDO FIESTA KINETIC 5 1:37.908 0.700
12 65 Fernando GOMEZ FREDES NISSAN MARCH 3 1:37.919 0.711
13 5 Gaston GRASSO TOYOTA ETIOS 5 1:37.966 0.758
14 69 Agustin HERRERA RENAULT CLIO 2 1:37.982 0.774
15 21 Gabriel SCORDIA FIESTA KINETIC 5 1:37.991 0.783
16 99 Luciano GONZALEZ RENAULT CLIO 4 1:38.006 0.798
17 36 Alejo BORGIANI VW TREND 2 1:38.051 0.843
18 73 Lucas BAGNERA RENAULT CLIO 4 1:38.053 0.845
19 150 Damian MARKEL TOYOTA ETIOS 5 1:38.087 0.879
20 112 Damian ROMERO TOYOTA ETIOS 4 1:38.146 0.938
21 78 Alejandro WEIMANN TOYOTA ETIOS 5 1:38.173 0.965
22 25 Sebastian PEREZ CHEVROLET ONIX 4 1:38.249 1.041
23 7 Maximiliano BESTANI NISSAN MARCH 5 1:38.263 1.055
24 63 Renzo TESTA FIAT PALIO 4 1:38.314 1.106
25 141 Juan Pablo ROTONDO FIESTA KINETIC 5 1:38.361 1.153
26 79 Andres CALDERON VW TREND 5 1:38.454 1.246
27 24 Juan I. CANELA FIESTA KINETIC 4 1:38.529 1.321
28 199 Emiliano GIACOPONI CHEVROLET CORSA 5 1:38.560 1.352
29 75 Jose Luis ARRATE RENAULT CLIO 4 1:38.751 1.543
30 35 Diego LEANEZ TOYOTA ETIOS 5 1:38.803 1.595
31 47 Ignacio PROCACITTO VW TREND 4 1:38.806 1.598
32 66 Martin ALESSI RENAULT CLIO 5 1:39.181 1.973
33 18 Marcos FERNANDEZ NISSAN MARCH 5 1:42.030 4.822
34 61 Sergio SPEDALIERI RENAULT CLIO 5 1:43.272 6.064

Sin Tiempo Autos Nro. 52 y 159.

Auto Nro. 31 excluido parcialmente por no respetar regimen de parque cerrado.

Autos Nro. 5 y 7 retiro de la mejor vuelta por obstruccion a los Autos Nro. 13 y 36.

Auto Nro 66 retiro de la mejor vuelta por obstruccion al Auto Nro. 150.

Descargas
Título Archivo Descarga
204-361-2-clasifica-clase-2.xls
GENERAL CLASIFICACIÓN C2
Puesto Nro Piloto Marca Vtas Tiempo Dif.
1 1 Nicolas POSCO FIESTA KINETIC 1:37.208
2 13 Joel BORGOBELLO VW TREND 1:37.242 0.034
3 72 Lucas TEDESCHI TOYOTA ETIOS 1:37.286 0.078
4 6 Miguel CIAURRO VW TREND 1:37.377 0.169
5 14 Ever FRANETOVICH FIAT PALIO 1:37.414 0.206
6 36 Alejo BORGIANI VW TREND 1:37.440 0.232
7 18 Marcos FERNANDEZ NISSAN MARCH 1:37.444 0.236
8 11 Gaston IANSA FIESTA KINETIC 1:37.517 0.309
9 65 Fernando GOMEZ FREDES NISSAN MARCH 1:37.582 0.374
10 5 Gaston GRASSO TOYOTA ETIOS 1:37.739 0.531
11 32 Sergio FERNANDEZ NISSAN MARCH 1:37.746 0.538
12 25 Sebastian PEREZ CHEVROLET ONIX 1:37.752 0.544
13 120 Geronimo NUNEZ NISSAN MARCH 1:37.754 0.546
14 150 Damian MARKEL TOYOTA ETIOS 1:37.784 0.576
15 91 Mauro SALVI TOYOTA ETIOS 1:37.801 0.593
16 100 Ian REUTEMANN FIESTA KINETIC 1:37.808 0.600
17 7 Maximiliano BESTANI NISSAN MARCH 1:37.857 0.649
18 69 Agustin HERRERA RENAULT CLIO 1:37.875 0.667
19 63 Renzo TESTA FIAT PALIO 1:37.876 0.668
20 66 Martin ALESSI RENAULT CLIO 1:37.885 0.677
21 54 Facundo ROTONDO FIESTA KINETIC 1:37.908 0.700
22 73 Lucas BAGNERA RENAULT CLIO 1:37.977 0.769
23 21 Gabriel SCORDIA FIESTA KINETIC 1:37.991 0.783
24 99 Luciano GONZALEZ RENAULT CLIO 1:38.006 0.798
25 31 Facundo LEANEZ TOYOTA ETIOS 1:38.144 0.936
26 112 Damian ROMERO TOYOTA ETIOS 1:38.146 0.938
27 78 Alejandro WEIMANN TOYOTA ETIOS 1:38.148 0.940
28 24 Juan I. CANELA FIESTA KINETIC 1:38.188 0.980
29 47 Ignacio PROCACITTO VW TREND 1:38.232 1.024
30 141 Juan Pablo ROTONDO FIESTA KINETIC 1:38.361 1.153
31 79 Andres CALDERON VW TREND 1:38.454 1.246
32 199 Emiliano GIACOPONI CHEVROLET CORSA 1:38.560 1.352
33 75 Jose Luis ARRATE RENAULT CLIO 1:38.653 1.445
34 35 Diego LEANEZ TOYOTA ETIOS 1:38.803 1.595
35 61 Sergio SPEDALIERI RENAULT CLIO 1:43.272 6.064

Sin Tiempos Autos Nro. 52 y 159.

Descargas
ENTRENAMIENTOS
1° ENTRENAMIENTO C2
Puesto Nro Piloto Marca Vtas Tiempo Dif.
1 1 Nicolas POSCO FIESTA KINETIC 11 1:37.719
2 11 Gaston IANSA FIESTA KINETIC 9 1:37.743 0.024
3 18 Marcos FERNANDEZ NISSAN MARCH 12 1:37.994 0.275
4 141 Juan Pablo ROTONDO FIESTA KINETIC 11 1:38.135 0.416
5 13 Joel BORGOBELLO VW TREND 13 1:38.173 0.454
6 78 Alejandro WEIMANN TOYOTA ETIOS 10 1:38.350 0.631
7 63 Renzo TESTA FIAT PALIO 9 1:38.351 0.632
8 75 Jose Luis ARRATE RENAULT CLIO 10 1:38.364 0.645
9 100 Ian REUTEMANN FIESTA KINETIC 8 1:38.373 0.654
10 72 Lucas TEDESCHI TOYOTA ETIOS 8 1:38.406 0.687
11 66 Martin ALESSI RENAULT CLIO 13 1:38.425 0.706
12 6 Miguel CIAURRO VW TREND 13 1:38.451 0.732
13 99 Luciano GONZALEZ RENAULT CLIO 10 1:38.476 0.757
14 91 Mauro SALVI TOYOTA ETIOS 9 1:38.513 0.794
15 36 Alejo BORGIANI VW TREND 12 1:38.570 0.851
16 120 Geronimo NUNEZ NISSAN MARCH 12 1:38.622 0.903
17 69 Agustin HERRERA RENAULT CLIO 13 1:38.626 0.907
18 21 Gabriel SCORDIA FIESTA KINETIC 10 1:38.644 0.925
19 150 Damian MARKEL TOYOTA ETIOS 11 1:38.700 0.981
20 65 Fernando GOMEZ FREDES NISSAN MARCH 14 1:38.707 0.988
21 14 Ever FRANETOVICH FIAT PALIO 11 1:38.732 1.013
22 112 Damian ROMERO TOYOTA ETIOS 11 1:38.755 1.036
23 24 Juan I. CANELA FIESTA KINETIC 8 1:38.771 1.052
24 32 Sergio FERNANDEZ NISSAN MARCH 11 1:38.771 1.052
25 5 Gaston GRASSO TOYOTA ETIOS 13 1:38.774 1.055
26 7 Maximiliano BESTANI NISSAN MARCH 14 1:38.853 1.134
27 73 Lucas BAGNERA RENAULT CLIO 14 1:38.922 1.203
28 54 Facundo ROTONDO FIESTA KINETIC 10 1:38.974 1.255
29 31 Facundo LEANEZ TOYOTA ETIOS 14 1:39.033 1.314
30 25 Sebastian PEREZ CHEVROLET ONIX 12 1:39.083 1.364
31 35 Diego LEANEZ TOYOTA ETIOS 9 1:39.642 1.923
32 79 Andres CALDERON VW TREND 8 1:39.862 2.143
33 199 Emiliano GIACOPONI CHEVROLET CORSA 5 1:41.037 3.318
34 159 Agustin BONOMO DS3 9 1:41.269 3.550
35 52 Gustavo ACUNA VW TREND 10 1:42.982 5.263
36 61 Sergio SPEDALIERI RENAULT CLIO 3 1:45.915 8.196
37 47 Ignacio PROCACITTO VW TREND 2 2:15.973 38.254
Descargas
Título Archivo Descarga
204-124-1-entre-clase-2.xls
2° ENTRENAMIENTO C2
Puesto Nro Piloto Marca Vtas Tiempo Dif.
1 13 Joel BORGOBELLO VW TREND 11 1:37.400
2 14 Ever FRANETOVICH FIAT PALIO 10 1:37.949 0.549
3 72 Lucas TEDESCHI TOYOTA ETIOS 9 1:37.971 0.571
4 36 Alejo BORGIANI VW TREND 12 1:37.989 0.589
5 63 Renzo TESTA FIAT PALIO 9 1:38.007 0.607
6 1 Nicolas POSCO FIESTA KINETIC 9 1:38.014 0.614
7 65 Fernando GOMEZ FREDES NISSAN MARCH 11 1:38.063 0.663
8 18 Marcos FERNANDEZ NISSAN MARCH 11 1:38.189 0.789
9 69 Agustin HERRERA RENAULT CLIO 9 1:38.218 0.818
10 78 Alejandro WEIMANN TOYOTA ETIOS 10 1:38.276 0.876
11 73 Lucas BAGNERA RENAULT CLIO 12 1:38.282 0.882
12 11 Gaston IANSA FIESTA KINETIC 11 1:38.293 0.893
13 120 Geronimo NUNEZ NISSAN MARCH 12 1:38.297 0.897
14 6 Miguel CIAURRO VW TREND 11 1:38.349 0.949
15 7 Maximiliano BESTANI NISSAN MARCH 12 1:38.439 1.039
16 141 Juan Pablo ROTONDO FIESTA KINETIC 12 1:38.475 1.075
17 112 Damian ROMERO TOYOTA ETIOS 10 1:38.483 1.083
18 31 Facundo LEANEZ TOYOTA ETIOS 12 1:38.506 1.106
19 91 Mauro SALVI TOYOTA ETIOS 10 1:38.530 1.130
20 24 Juan I. CANELA FIESTA KINETIC 10 1:38.531 1.131
21 99 Luciano GONZALEZ RENAULT CLIO 12 1:38.558 1.158
22 150 Damian MARKEL TOYOTA ETIOS 10 1:38.634 1.234
23 75 Jose Luis ARRATE RENAULT CLIO 10 1:38.639 1.239
24 100 Ian REUTEMANN FIESTA KINETIC 8 1:38.659 1.259
25 66 Martin ALESSI RENAULT CLIO 11 1:38.730 1.330
26 32 Sergio FERNANDEZ NISSAN MARCH 12 1:38.758 1.358
27 21 Gabriel SCORDIA FIESTA KINETIC 9 1:38.796 1.396
28 54 Facundo ROTONDO FIESTA KINETIC 9 1:38.829 1.429
29 35 Diego LEANEZ TOYOTA ETIOS 10 1:38.841 1.441
30 5 Gaston GRASSO TOYOTA ETIOS 8 1:39.269 1.869
31 25 Sebastian PEREZ CHEVROLET ONIX 10 1:39.313 1.913
32 79 Andres CALDERON VW TREND 9 1:39.869 2.469
33 159 Agustin BONOMO DS3 6 1:42.286 4.886
34 61 Sergio SPEDALIERI RENAULT CLIO 8 1:43.086 5.686

Sin Tiempos Autos Nro. 47, 52 y 199

Descargas
Título Archivo Descarga
204-479-2-entre-clase-2.xls
GENERAL ENTRENAMIENTO C2
Puesto Nro Piloto Marca Vtas Tiempo Dif.
1 13 Joel BORGOBELLO VW TREND 1:37.400
2 1 Nicolas POSCO FIESTA KINETIC 1:37.719 0.319
3 11 Gaston IANSA FIESTA KINETIC 1:37.743 0.343
4 14 Ever FRANETOVICH FIAT PALIO 1:37.949 0.549
5 72 Lucas TEDESCHI TOYOTA ETIOS 1:37.971 0.571
6 36 Alejo BORGIANI VW TREND 1:37.989 0.589
7 18 Marcos FERNANDEZ NISSAN MARCH 1:37.994 0.594
8 63 Renzo TESTA FIAT PALIO 1:38.007 0.607
9 65 Fernando GOMEZ FREDES NISSAN MARCH 1:38.063 0.663
10 141 Juan Pablo ROTONDO FIESTA KINETIC 1:38.135 0.735
11 69 Agustin HERRERA RENAULT CLIO 1:38.218 0.818
12 78 Alejandro WEIMANN TOYOTA ETIOS 1:38.276 0.876
13 73 Lucas BAGNERA RENAULT CLIO 1:38.282 0.882
14 120 Geronimo NUNEZ NISSAN MARCH 1:38.297 0.897
15 6 Miguel CIAURRO VW TREND 1:38.349 0.949
16 75 Jose Luis ARRATE RENAULT CLIO 1:38.364 0.964
17 100 Ian REUTEMANN FIESTA KINETIC 1:38.373 0.973
18 66 Martin ALESSI RENAULT CLIO 1:38.425 1.025
19 7 Maximiliano BESTANI NISSAN MARCH 1:38.439 1.039
20 99 Luciano GONZALEZ RENAULT CLIO 1:38.476 1.076
21 112 Damian ROMERO TOYOTA ETIOS 1:38.483 1.083
22 31 Facundo LEANEZ TOYOTA ETIOS 1:38.506 1.106
23 91 Mauro SALVI TOYOTA ETIOS 1:38.513 1.113
24 24 Juan I. CANELA FIESTA KINETIC 1:38.531 1.131
25 150 Damian MARKEL TOYOTA ETIOS 1:38.634 1.234
26 21 Gabriel SCORDIA FIESTA KINETIC 1:38.644 1.244
27 32 Sergio FERNANDEZ NISSAN MARCH 1:38.758 1.358
28 5 Gaston GRASSO TOYOTA ETIOS 1:38.774 1.374
29 54 Facundo ROTONDO FIESTA KINETIC 1:38.829 1.429
30 35 Diego LEANEZ TOYOTA ETIOS 1:38.841 1.441
31 25 Sebastian PEREZ CHEVROLET ONIX 1:39.083 1.683
32 79 Andres CALDERON VW TREND 1:39.862 2.462
33 199 Emiliano GIACOPONI CHEVROLET CORSA 1:41.037 3.637
34 159 Agustin BONOMO DS3 1:41.269 3.869
35 52 Gustavo ACUNA VW TREND 1:42.982 5.582
36 61 Sergio SPEDALIERI RENAULT CLIO 1:43.086 5.686
37 47 Ignacio PROCACITTO VW TREND 2:15.973 38.573
Descargas
CALENDARIO AÑO 2019
Nro Fecha Circuito C2 C3
1 24/02 San Luis (La Pedrera)
2 24/03 La Pampa
3 21/04 San Juan
4 12/05 Neuquen
5 02/06 Concordia
6 14/07 San Luis
7 04/08 Obera
8 01/09 Termas de Rio Hondo
9 29/09 Viedma
10 20/10 San Jorge
11 17/11 Rosario
12 08/12 San Nicolas